sensor_id;sensor_type;location;lat;lon;timestamp;temperature;humidity
6843;DHT22;3460;52.028;8.916;2022-10-26T00:01:31;10.00;99.90
6843;DHT22;3460;52.028;8.916;2022-10-26T00:03:57;9.80;99.90
6843;DHT22;3460;52.028;8.916;2022-10-26T00:06:25;9.70;99.90
6843;DHT22;3460;52.028;8.916;2022-10-26T00:08:54;9.60;99.90
6843;DHT22;3460;52.028;8.916;2022-10-26T00:11:21;9.40;99.90
6843;DHT22;3460;52.028;8.916;2022-10-26T00:13:48;9.40;99.90
6843;DHT22;3460;52.028;8.916;2022-10-26T00:16:17;9.30;99.90
6843;DHT22;3460;52.028;8.916;2022-10-26T00:18:46;9.30;99.90
6843;DHT22;3460;52.028;8.916;2022-10-26T00:21:13;9.20;99.90
6843;DHT22;3460;52.028;8.916;2022-10-26T00:23:40;9.10;99.90
6843;DHT22;3460;52.028;8.916;2022-10-26T00:26:07;9.10;99.90
6843;DHT22;3460;52.028;8.916;2022-10-26T00:28:34;9.20;99.90
6843;DHT22;3460;52.028;8.916;2022-10-26T00:31:01;9.30;99.90
6843;DHT22;3460;52.028;8.916;2022-10-26T00:33:28;9.50;99.90
6843;DHT22;3460;52.028;8.916;2022-10-26T00:35:56;9.60;99.90
6843;DHT22;3460;52.028;8.916;2022-10-26T00:38:23;9.70;99.90
6843;DHT22;3460;52.028;8.916;2022-10-26T00:40:50;9.70;99.90
6843;DHT22;3460;52.028;8.916;2022-10-26T00:43:38;9.80;99.90
6843;DHT22;3460;52.028;8.916;2022-10-26T00:46:11;9.90;99.90
6843;DHT22;3460;52.028;8.916;2022-10-26T00:48:42;9.90;99.90
6843;DHT22;3460;52.028;8.916;2022-10-26T00:51:14;9.90;99.90
6843;DHT22;3460;52.028;8.916;2022-10-26T00:53:43;9.90;99.90
6843;DHT22;3460;52.028;8.916;2022-10-26T00:56:10;9.80;99.90
6843;DHT22;3460;52.028;8.916;2022-10-26T00:58:38;9.80;99.90
6843;DHT22;3460;52.028;8.916;2022-10-26T01:01:05;9.70;99.90
6843;DHT22;3460;52.028;8.916;2022-10-26T01:03:33;9.60;99.90
6843;DHT22;3460;52.028;8.916;2022-10-26T01:06:02;9.40;99.90
6843;DHT22;3460;52.028;8.916;2022-10-26T01:08:32;9.20;99.90
6843;DHT22;3460;52.028;8.916;2022-10-26T01:10:59;9.00;99.90
6843;DHT22;3460;52.028;8.916;2022-10-26T01:13:28;8.90;99.90
6843;DHT22;3460;52.028;8.916;2022-10-26T01:16:03;8.80;99.90
6843;DHT22;3460;52.028;8.916;2022-10-26T01:18:39;8.60;99.90
6843;DHT22;3460;52.028;8.916;2022-10-26T01:21:39;8.60;99.90
6843;DHT22;3460;52.028;8.916;2022-10-26T01:24:20;8.60;99.90
6843;DHT22;3460;52.028;8.916;2022-10-26T01:26:56;8.70;99.90
6843;DHT22;3460;52.028;8.916;2022-10-26T01:32:32;8.90;99.90
6843;DHT22;3460;52.028;8.916;2022-10-26T01:35:07;8.90;99.90
6843;DHT22;3460;52.028;8.916;2022-10-26T01:37:38;9.00;99.90
6843;DHT22;3460;52.028;8.916;2022-10-26T01:40:09;9.00;99.90
6843;DHT22;3460;52.028;8.916;2022-10-26T01:42:40;9.10;99.90
6843;DHT22;3460;52.028;8.916;2022-10-26T01:45:09;9.10;99.90
6843;DHT22;3460;52.028;8.916;2022-10-26T01:47:39;9.20;99.90
6843;DHT22;3460;52.028;8.916;2022-10-26T01:50:08;9.20;99.90
6843;DHT22;3460;52.028;8.916;2022-10-26T01:52:36;9.30;99.90
6843;DHT22;3460;52.028;8.916;2022-10-26T01:55:31;9.30;99.90
6843;DHT22;3460;52.028;8.916;2022-10-26T01:57:54;9.40;99.90
6843;DHT22;3460;52.028;8.916;2022-10-26T02:00:27;9.50;99.90
6843;DHT22;3460;52.028;8.916;2022-10-26T02:03:08;9.50;99.90
6843;DHT22;3460;52.028;8.916;2022-10-26T02:05:50;9.40;99.90
6843;DHT22;3460;52.028;8.916;2022-10-26T02:08:26;9.50;99.90
6843;DHT22;3460;52.028;8.916;2022-10-26T02:11:03;9.60;99.90
6843;DHT22;3460;52.028;8.916;2022-10-26T02:13:41;9.60;99.90
6843;DHT22;3460;52.028;8.916;2022-10-26T02:16:18;9.60;99.90
6843;DHT22;3460;52.028;8.916;2022-10-26T02:18:52;9.60;99.90
6843;DHT22;3460;52.028;8.916;2022-10-26T02:21:24;9.70;99.90
6843;DHT22;3460;52.028;8.916;2022-10-26T02:23:52;9.70;99.90
6843;DHT22;3460;52.028;8.916;2022-10-26T02:26:23;9.70;99.90
6843;DHT22;3460;52.028;8.916;2022-10-26T02:28:54;9.70;99.90
6843;DHT22;3460;52.028;8.916;2022-10-26T02:31:22;9.70;99.90
6843;DHT22;3460;52.028;8.916;2022-10-26T02:33:52;9.70;99.90
6843;DHT22;3460;52.028;8.916;2022-10-26T02:36:24;9.70;99.90
6843;DHT22;3460;52.028;8.916;2022-10-26T02:38:53;9.70;99.90
6843;DHT22;3460;52.028;8.916;2022-10-26T02:41:21;9.70;99.90
6843;DHT22;3460;52.028;8.916;2022-10-26T02:43:52;9.70;99.90
6843;DHT22;3460;52.028;8.916;2022-10-26T02:46:21;9.80;99.90
6843;DHT22;3460;52.028;8.916;2022-10-26T02:48:48;9.80;99.90
6843;DHT22;3460;52.028;8.916;2022-10-26T02:51:19;9.80;99.90
6843;DHT22;3460;52.028;8.916;2022-10-26T02:53:54;9.80;99.90
6843;DHT22;3460;52.028;8.916;2022-10-26T02:56:27;9.80;99.90
6843;DHT22;3460;52.028;8.916;2022-10-26T02:58:58;9.80;99.90
6843;DHT22;3460;52.028;8.916;2022-10-26T03:01:26;9.90;99.90
6843;DHT22;3460;52.028;8.916;2022-10-26T03:03:56;9.80;99.90
6843;DHT22;3460;52.028;8.916;2022-10-26T03:06:24;9.80;99.90
6843;DHT22;3460;52.028;8.916;2022-10-26T03:08:51;9.90;99.90
6843;DHT22;3460;52.028;8.916;2022-10-26T03:11:18;9.90;99.90
6843;DHT22;3460;52.028;8.916;2022-10-26T03:13:45;9.90;99.90
6843;DHT22;3460;52.028;8.916;2022-10-26T03:16:12;10.00;99.90
6843;DHT22;3460;52.028;8.916;2022-10-26T03:18:39;10.00;99.90
6843;DHT22;3460;52.028;8.916;2022-10-26T03:21:06;10.00;99.90
6843;DHT22;3460;52.028;8.916;2022-10-26T03:23:34;10.00;99.90
6843;DHT22;3460;52.028;8.916;2022-10-26T03:26:01;10.00;99.90
6843;DHT22;3460;52.028;8.916;2022-10-26T03:28:27;10.00;99.90
6843;DHT22;3460;52.028;8.916;2022-10-26T03:30:54;10.00;99.90
6843;DHT22;3460;52.028;8.916;2022-10-26T03:33:21;10.00;99.90
6843;DHT22;3460;52.028;8.916;2022-10-26T03:35:53;10.00;99.90
6843;DHT22;3460;52.028;8.916;2022-10-26T03:38:21;10.00;99.90
6843;DHT22;3460;52.028;8.916;2022-10-26T03:40:49;10.00;99.90
6843;DHT22;3460;52.028;8.916;2022-10-26T03:43:15;10.00;99.90
6843;DHT22;3460;52.028;8.916;2022-10-26T03:45:42;10.00;99.90
6843;DHT22;3460;52.028;8.916;2022-10-26T03:48:09;10.00;99.90
6843;DHT22;3460;52.028;8.916;2022-10-26T03:50:35;10.00;99.90
6843;DHT22;3460;52.028;8.916;2022-10-26T03:53:02;10.00;99.90
6843;DHT22;3460;52.028;8.916;2022-10-26T03:55:29;9.90;99.90
6843;DHT22;3460;52.028;8.916;2022-10-26T03:57:57;9.90;99.90
6843;DHT22;3460;52.028;8.916;2022-10-26T04:00:23;9.90;99.90
6843;DHT22;3460;52.028;8.916;2022-10-26T04:02:54;9.90;99.90
6843;DHT22;3460;52.028;8.916;2022-10-26T04:05:21;9.90;99.90
6843;DHT22;3460;52.028;8.916;2022-10-26T04:07:51;9.90;99.90
6843;DHT22;3460;52.028;8.916;2022-10-26T04:10:18;9.90;99.90
6843;DHT22;3460;52.028;8.916;2022-10-26T04:12:45;9.90;99.90
6843;DHT22;3460;52.028;8.916;2022-10-26T04:15:13;9.90;99.90
6843;DHT22;3460;52.028;8.916;2022-10-26T04:17:40;9.90;99.90
6843;DHT22;3460;52.028;8.916;2022-10-26T04:20:08;9.90;99.90
6843;DHT22;3460;52.028;8.916;2022-10-26T04:22:35;9.90;99.90
6843;DHT22;3460;52.028;8.916;2022-10-26T04:25:01;9.90;99.90
6843;DHT22;3460;52.028;8.916;2022-10-26T04:27:28;9.90;99.90
6843;DHT22;3460;52.028;8.916;2022-10-26T04:29:55;9.90;99.90
6843;DHT22;3460;52.028;8.916;2022-10-26T04:32:23;9.90;99.90
6843;DHT22;3460;52.028;8.916;2022-10-26T04:34:50;10.00;99.90
6843;DHT22;3460;52.028;8.916;2022-10-26T04:37:18;10.00;99.90
6843;DHT22;3460;52.028;8.916;2022-10-26T04:39:45;10.00;99.90
6843;DHT22;3460;52.028;8.916;2022-10-26T04:42:12;10.00;99.90
6843;DHT22;3460;52.028;8.916;2022-10-26T04:44:38;10.00;99.90
6843;DHT22;3460;52.028;8.916;2022-10-26T04:47:05;10.00;99.90
6843;DHT22;3460;52.028;8.916;2022-10-26T04:49:33;10.00;99.90
6843;DHT22;3460;52.028;8.916;2022-10-26T04:52:00;10.00;99.90
6843;DHT22;3460;52.028;8.916;2022-10-26T04:54:26;10.00;99.90
6843;DHT22;3460;52.028;8.916;2022-10-26T04:56:53;10.00;99.90
6843;DHT22;3460;52.028;8.916;2022-10-26T04:59:19;10.00;99.90
6843;DHT22;3460;52.028;8.916;2022-10-26T05:01:46;10.00;99.90
6843;DHT22;3460;52.028;8.916;2022-10-26T05:04:13;10.00;99.90
6843;DHT22;3460;52.028;8.916;2022-10-26T05:06:41;10.10;99.90
6843;DHT22;3460;52.028;8.916;2022-10-26T05:09:08;10.10;99.90
6843;DHT22;3460;52.028;8.916;2022-10-26T05:11:34;10.10;99.90
6843;DHT22;3460;52.028;8.916;2022-10-26T05:14:01;10.10;99.90
6843;DHT22;3460;52.028;8.916;2022-10-26T05:16:28;10.10;99.90
6843;DHT22;3460;52.028;8.916;2022-10-26T05:18:55;10.10;99.90
6843;DHT22;3460;52.028;8.916;2022-10-26T05:21:21;10.10;99.90
6843;DHT22;3460;52.028;8.916;2022-10-26T05:23:50;10.10;99.90
6843;DHT22;3460;52.028;8.916;2022-10-26T05:26:18;10.10;99.90
6843;DHT22;3460;52.028;8.916;2022-10-26T05:28:45;10.10;99.90
6843;DHT22;3460;52.028;8.916;2022-10-26T05:31:11;10.10;99.90
6843;DHT22;3460;52.028;8.916;2022-10-26T05:33:38;10.20;99.90
6843;DHT22;3460;52.028;8.916;2022-10-26T05:36:05;10.20;99.90
6843;DHT22;3460;52.028;8.916;2022-10-26T05:38:32;10.20;99.90
6843;DHT22;3460;52.028;8.916;2022-10-26T05:41:00;10.20;99.90
6843;DHT22;3460;52.028;8.916;2022-10-26T05:43:27;10.30;99.90
6843;DHT22;3460;52.028;8.916;2022-10-26T05:45:54;10.30;99.90
6843;DHT22;3460;52.028;8.916;2022-10-26T05:48:21;10.30;99.90
6843;DHT22;3460;52.028;8.916;2022-10-26T05:50:48;10.30;99.90
6843;DHT22;3460;52.028;8.916;2022-10-26T05:53:14;10.40;99.90
6843;DHT22;3460;52.028;8.916;2022-10-26T05:55:42;10.40;99.90
6843;DHT22;3460;52.028;8.916;2022-10-26T05:58:12;10.40;99.90
6843;DHT22;3460;52.028;8.916;2022-10-26T06:00:51;10.40;99.90
6843;DHT22;3460;52.028;8.916;2022-10-26T06:03:31;10.40;99.90
6843;DHT22;3460;52.028;8.916;2022-10-26T06:06:01;10.50;99.90
6843;DHT22;3460;52.028;8.916;2022-10-26T06:08:29;10.50;99.90
6843;DHT22;3460;52.028;8.916;2022-10-26T06:10:57;10.50;99.90
6843;DHT22;3460;52.028;8.916;2022-10-26T06:13:26;10.50;99.90
6843;DHT22;3460;52.028;8.916;2022-10-26T06:16:18;10.60;99.90
6843;DHT22;3460;52.028;8.916;2022-10-26T06:18:52;10.60;99.90
6843;DHT22;3460;52.028;8.916;2022-10-26T06:21:33;10.70;99.90
6843;DHT22;3460;52.028;8.916;2022-10-26T06:24:06;10.70;99.90
6843;DHT22;3460;52.028;8.916;2022-10-26T06:26:41;10.70;99.90
6843;DHT22;3460;52.028;8.916;2022-10-26T06:29:23;10.70;99.90
6843;DHT22;3460;52.028;8.916;2022-10-26T06:31:53;10.80;99.90
6843;DHT22;3460;52.028;8.916;2022-10-26T06:34:24;10.80;99.90
6843;DHT22;3460;52.028;8.916;2022-10-26T06:36:52;10.80;99.90
6843;DHT22;3460;52.028;8.916;2022-10-26T06:39:19;10.90;99.90
6843;DHT22;3460;52.028;8.916;2022-10-26T06:41:47;10.90;99.90
6843;DHT22;3460;52.028;8.916;2022-10-26T06:44:21;10.90;99.90
6843;DHT22;3460;52.028;8.916;2022-10-26T06:46:54;11.00;99.90
6843;DHT22;3460;52.028;8.916;2022-10-26T06:49:29;11.10;99.90
6843;DHT22;3460;52.028;8.916;2022-10-26T06:51:58;11.10;99.90
6843;DHT22;3460;52.028;8.916;2022-10-26T06:54:34;11.10;99.90
6843;DHT22;3460;52.028;8.916;2022-10-26T06:57:08;11.10;99.90
6843;DHT22;3460;52.028;8.916;2022-10-26T06:59:49;11.10;99.90
6843;DHT22;3460;52.028;8.916;2022-10-26T07:02:16;11.10;99.90
6843;DHT22;3460;52.028;8.916;2022-10-26T07:04:43;11.20;99.90
6843;DHT22;3460;52.028;8.916;2022-10-26T07:07:11;11.20;99.90
6843;DHT22;3460;52.028;8.916;2022-10-26T07:09:39;11.20;99.90
6843;DHT22;3460;52.028;8.916;2022-10-26T07:12:06;11.20;99.90
6843;DHT22;3460;52.028;8.916;2022-10-26T07:14:33;11.20;99.90
6843;DHT22;3460;52.028;8.916;2022-10-26T07:17:01;11.20;99.90
6843;DHT22;3460;52.028;8.916;2022-10-26T07:19:27;11.30;99.90
6843;DHT22;3460;52.028;8.916;2022-10-26T07:21:54;11.30;99.90
6843;DHT22;3460;52.028;8.916;2022-10-26T07:24:23;11.30;99.90
6843;DHT22;3460;52.028;8.916;2022-10-26T07:26:52;11.30;99.90
6843;DHT22;3460;52.028;8.916;2022-10-26T07:29:19;11.40;99.90
6843;DHT22;3460;52.028;8.916;2022-10-26T07:31:45;11.40;99.90
6843;DHT22;3460;52.028;8.916;2022-10-26T07:34:13;11.40;99.90
6843;DHT22;3460;52.028;8.916;2022-10-26T07:36:40;11.40;99.90
6843;DHT22;3460;52.028;8.916;2022-10-26T07:39:07;11.50;99.90
6843;DHT22;3460;52.028;8.916;2022-10-26T07:41:34;11.50;99.90
6843;DHT22;3460;52.028;8.916;2022-10-26T07:44:00;11.60;99.90
6843;DHT22;3460;52.028;8.916;2022-10-26T07:46:27;11.60;99.90
6843;DHT22;3460;52.028;8.916;2022-10-26T07:48:54;11.60;99.90
6843;DHT22;3460;52.028;8.916;2022-10-26T07:51:22;11.60;99.90
6843;DHT22;3460;52.028;8.916;2022-10-26T07:53:49;11.70;99.90
6843;DHT22;3460;52.028;8.916;2022-10-26T07:56:15;11.80;99.90
6843;DHT22;3460;52.028;8.916;2022-10-26T07:58:42;11.90;99.90
6843;DHT22;3460;52.028;8.916;2022-10-26T08:01:10;12.00;99.90
6843;DHT22;3460;52.028;8.916;2022-10-26T08:03:37;12.10;99.90
6843;DHT22;3460;52.028;8.916;2022-10-26T08:06:05;12.20;99.90
6843;DHT22;3460;52.028;8.916;2022-10-26T08:08:33;12.20;99.90
6843;DHT22;3460;52.028;8.916;2022-10-26T08:11:00;12.30;99.90
6843;DHT22;3460;52.028;8.916;2022-10-26T08:13:27;12.30;99.90
6843;DHT22;3460;52.028;8.916;2022-10-26T08:15:56;12.40;99.90
6843;DHT22;3460;52.028;8.916;2022-10-26T08:18:23;12.40;99.90
6843;DHT22;3460;52.028;8.916;2022-10-26T08:20:50;12.40;99.90
6843;DHT22;3460;52.028;8.916;2022-10-26T08:23:17;12.40;99.90
6843;DHT22;3460;52.028;8.916;2022-10-26T08:25:45;12.40;99.90
6843;DHT22;3460;52.028;8.916;2022-10-26T08:28:12;12.60;99.90
6843;DHT22;3460;52.028;8.916;2022-10-26T08:30:38;12.70;99.90
6843;DHT22;3460;52.028;8.916;2022-10-26T08:33:06;12.90;99.90
6843;DHT22;3460;52.028;8.916;2022-10-26T08:35:33;12.90;99.90
6843;DHT22;3460;52.028;8.916;2022-10-26T08:38:00;12.80;99.90
6843;DHT22;3460;52.028;8.916;2022-10-26T08:40:29;12.80;99.90
6843;DHT22;3460;52.028;8.916;2022-10-26T08:43:02;12.90;99.90
6843;DHT22;3460;52.028;8.916;2022-10-26T08:45:34;12.90;99.90
6843;DHT22;3460;52.028;8.916;2022-10-26T08:48:05;12.90;99.90
6843;DHT22;3460;52.028;8.916;2022-10-26T08:50:38;12.90;99.90
6843;DHT22;3460;52.028;8.916;2022-10-26T08:53:10;12.90;99.90
6843;DHT22;3460;52.028;8.916;2022-10-26T08:55:42;12.90;99.90
6843;DHT22;3460;52.028;8.916;2022-10-26T08:58:14;13.00;99.90
6843;DHT22;3460;52.028;8.916;2022-10-26T09:00:41;13.00;99.90
6843;DHT22;3460;52.028;8.916;2022-10-26T09:03:12;13.00;99.90
6843;DHT22;3460;52.028;8.916;2022-10-26T09:05:49;13.10;99.90
6843;DHT22;3460;52.028;8.916;2022-10-26T09:08:27;13.10;99.90
6843;DHT22;3460;52.028;8.916;2022-10-26T09:11:01;13.20;99.90
6843;DHT22;3460;52.028;8.916;2022-10-26T09:13:39;13.20;99.90
6843;DHT22;3460;52.028;8.916;2022-10-26T09:16:13;13.30;99.90
6843;DHT22;3460;52.028;8.916;2022-10-26T09:18:47;13.30;99.90
6843;DHT22;3460;52.028;8.916;2022-10-26T09:21:27;13.50;99.90
6843;DHT22;3460;52.028;8.916;2022-10-26T09:24:01;13.50;99.90
6843;DHT22;3460;52.028;8.916;2022-10-26T09:26:37;13.60;99.90
6843;DHT22;3460;52.028;8.916;2022-10-26T09:29:11;13.60;99.90
6843;DHT22;3460;52.028;8.916;2022-10-26T09:31:40;13.60;99.90
6843;DHT22;3460;52.028;8.916;2022-10-26T09:34:15;13.60;99.90
6843;DHT22;3460;52.028;8.916;2022-10-26T09:36:44;13.60;99.90
6843;DHT22;3460;52.028;8.916;2022-10-26T09:39:14;13.60;99.90
6843;DHT22;3460;52.028;8.916;2022-10-26T09:41:47;13.60;99.90
6843;DHT22;3460;52.028;8.916;2022-10-26T09:44:23;13.70;99.90
6843;DHT22;3460;52.028;8.916;2022-10-26T09:46:55;13.70;99.90
6843;DHT22;3460;52.028;8.916;2022-10-26T09:49:27;13.80;99.90
6843;DHT22;3460;52.028;8.916;2022-10-26T09:51:57;13.80;99.90
6843;DHT22;3460;52.028;8.916;2022-10-26T09:54:24;13.90;99.90
6843;DHT22;3460;52.028;8.916;2022-10-26T09:56:53;13.90;99.90
6843;DHT22;3460;52.028;8.916;2022-10-26T09:59:23;13.90;99.90
6843;DHT22;3460;52.028;8.916;2022-10-26T10:01:50;14.20;99.90
6843;DHT22;3460;52.028;8.916;2022-10-26T10:04:19;14.40;99.90
6843;DHT22;3460;52.028;8.916;2022-10-26T10:06:47;14.50;99.90
6843;DHT22;3460;52.028;8.916;2022-10-26T10:09:17;14.70;99.90
6843;DHT22;3460;52.028;8.916;2022-10-26T10:11:47;14.80;99.90
6843;DHT22;3460;52.028;8.916;2022-10-26T10:14:22;14.90;99.90
6843;DHT22;3460;52.028;8.916;2022-10-26T10:16:51;15.00;99.90
6843;DHT22;3460;52.028;8.916;2022-10-26T10:19:23;14.80;99.90
6843;DHT22;3460;52.028;8.916;2022-10-26T10:21:53;14.50;99.90
6843;DHT22;3460;52.028;8.916;2022-10-26T10:24:30;14.60;99.90
6843;DHT22;3460;52.028;8.916;2022-10-26T10:27:00;14.70;99.90
6843;DHT22;3460;52.028;8.916;2022-10-26T10:29:30;14.70;99.90
6843;DHT22;3460;52.028;8.916;2022-10-26T10:31:59;14.80;99.90
6843;DHT22;3460;52.028;8.916;2022-10-26T10:34:26;14.80;99.90
6843;DHT22;3460;52.028;8.916;2022-10-26T10:36:55;14.90;99.90
6843;DHT22;3460;52.028;8.916;2022-10-26T10:39:36;14.90;99.90
6843;DHT22;3460;52.028;8.916;2022-10-26T10:42:11;15.00;99.90
6843;DHT22;3460;52.028;8.916;2022-10-26T10:44:42;15.10;99.90
6843;DHT22;3460;52.028;8.916;2022-10-26T10:47:21;15.10;99.90
6843;DHT22;3460;52.028;8.916;2022-10-26T10:49:57;15.20;99.90
6843;DHT22;3460;52.028;8.916;2022-10-26T10:52:27;15.20;99.90
6843;DHT22;3460;52.028;8.916;2022-10-26T10:55:14;15.30;99.90
6843;DHT22;3460;52.028;8.916;2022-10-26T10:58:00;15.40;99.90
6843;DHT22;3460;52.028;8.916;2022-10-26T11:00:35;15.40;99.90
6843;DHT22;3460;52.028;8.916;2022-10-26T11:03:20;15.40;99.90
6843;DHT22;3460;52.028;8.916;2022-10-26T11:05:58;15.50;99.90
6843;DHT22;3460;52.028;8.916;2022-10-26T11:08:29;15.50;99.90
6843;DHT22;3460;52.028;8.916;2022-10-26T11:10:59;15.60;99.90
6843;DHT22;3460;52.028;8.916;2022-10-26T11:13:32;15.60;99.90
6843;DHT22;3460;52.028;8.916;2022-10-26T11:16:02;15.60;99.90
6843;DHT22;3460;52.028;8.916;2022-10-26T11:18:33;15.70;99.90
6843;DHT22;3460;52.028;8.916;2022-10-26T11:21:04;15.80;99.90
6843;DHT22;3460;52.028;8.916;2022-10-26T11:23:36;15.90;99.90
6843;DHT22;3460;52.028;8.916;2022-10-26T11:26:11;16.00;99.90
6843;DHT22;3460;52.028;8.916;2022-10-26T11:28:45;16.20;99.90
6843;DHT22;3460;52.028;8.916;2022-10-26T11:31:19;16.20;99.90
6843;DHT22;3460;52.028;8.916;2022-10-26T11:36:33;16.30;99.90
6843;DHT22;3460;52.028;8.916;2022-10-26T11:39:09;16.30;99.90
6843;DHT22;3460;52.028;8.916;2022-10-26T11:41:44;16.40;99.90
6843;DHT22;3460;52.028;8.916;2022-10-26T11:44:16;16.40;99.90
6843;DHT22;3460;52.028;8.916;2022-10-26T11:46:51;16.50;99.90
6843;DHT22;3460;52.028;8.916;2022-10-26T11:49:22;16.60;99.90
6843;DHT22;3460;52.028;8.916;2022-10-26T11:51:54;16.60;99.90
6843;DHT22;3460;52.028;8.916;2022-10-26T11:54:26;16.60;99.90
6843;DHT22;3460;52.028;8.916;2022-10-26T11:56:55;16.70;99.90
6843;DHT22;3460;52.028;8.916;2022-10-26T11:59:25;16.70;99.90
6843;DHT22;3460;52.028;8.916;2022-10-26T12:01:59;16.70;99.90
6843;DHT22;3460;52.028;8.916;2022-10-26T12:04:30;16.80;99.90
6843;DHT22;3460;52.028;8.916;2022-10-26T12:07:00;16.80;99.90
6843;DHT22;3460;52.028;8.916;2022-10-26T12:09:30;16.90;99.90
6843;DHT22;3460;52.028;8.916;2022-10-26T12:12:03;16.90;99.90
6843;DHT22;3460;52.028;8.916;2022-10-26T12:14:37;17.10;99.90
6843;DHT22;3460;52.028;8.916;2022-10-26T12:17:09;17.10;99.90
6843;DHT22;3460;52.028;8.916;2022-10-26T12:19:42;17.00;99.90
6843;DHT22;3460;52.028;8.916;2022-10-26T12:22:13;17.10;99.90
6843;DHT22;3460;52.028;8.916;2022-10-26T12:24:43;17.00;99.90
6843;DHT22;3460;52.028;8.916;2022-10-26T12:27:28;17.10;99.90
6843;DHT22;3460;52.028;8.916;2022-10-26T12:30:21;17.10;99.90
6843;DHT22;3460;52.028;8.916;2022-10-26T12:32:51;17.10;99.90
6843;DHT22;3460;52.028;8.916;2022-10-26T12:35:38;17.00;99.90
6843;DHT22;3460;52.028;8.916;2022-10-26T12:41:20;17.10;99.90
6843;DHT22;3460;52.028;8.916;2022-10-26T12:43:47;17.10;99.90
6843;DHT22;3460;52.028;8.916;2022-10-26T12:46:42;17.10;99.90
6843;DHT22;3460;52.028;8.916;2022-10-26T12:52:41;17.10;99.90
6843;DHT22;3460;52.028;8.916;2022-10-26T12:58:34;17.20;99.90
6843;DHT22;3460;52.028;8.916;2022-10-26T13:01:35;17.20;99.90
6843;DHT22;3460;52.028;8.916;2022-10-26T13:04:24;17.20;99.90
6843;DHT22;3460;52.028;8.916;2022-10-26T13:07:17;17.10;99.90
6843;DHT22;3460;52.028;8.916;2022-10-26T13:09:59;17.20;99.90
6843;DHT22;3460;52.028;8.916;2022-10-26T13:12:35;17.10;99.90
6843;DHT22;3460;52.028;8.916;2022-10-26T13:15:03;17.30;99.90
6843;DHT22;3460;52.028;8.916;2022-10-26T13:17:32;17.30;99.90
6843;DHT22;3460;52.028;8.916;2022-10-26T13:20:00;17.40;99.90
6843;DHT22;3460;52.028;8.916;2022-10-26T13:22:30;17.40;99.90
6843;DHT22;3460;52.028;8.916;2022-10-26T13:24:59;17.40;99.90
6843;DHT22;3460;52.028;8.916;2022-10-26T13:27:40;17.40;99.90
6843;DHT22;3460;52.028;8.916;2022-10-26T13:30:34;17.40;99.90
6843;DHT22;3460;52.028;8.916;2022-10-26T13:33:23;17.40;99.90
6843;DHT22;3460;52.028;8.916;2022-10-26T13:35:54;17.40;99.90
6843;DHT22;3460;52.028;8.916;2022-10-26T13:38:24;17.40;99.90
6843;DHT22;3460;52.028;8.916;2022-10-26T13:41:01;17.40;99.90
6843;DHT22;3460;52.028;8.916;2022-10-26T13:43:30;17.50;99.90
6843;DHT22;3460;52.028;8.916;2022-10-26T13:45:58;17.60;99.90
6843;DHT22;3460;52.028;8.916;2022-10-26T13:48:32;17.70;99.90
6843;DHT22;3460;52.028;8.916;2022-10-26T13:51:03;17.70;99.90
6843;DHT22;3460;52.028;8.916;2022-10-26T13:53:37;17.60;99.90
6843;DHT22;3460;52.028;8.916;2022-10-26T13:56:16;17.50;99.90
6843;DHT22;3460;52.028;8.916;2022-10-26T13:58:48;17.60;99.90
6843;DHT22;3460;52.028;8.916;2022-10-26T14:01:17;17.60;99.90
6843;DHT22;3460;52.028;8.916;2022-10-26T14:03:46;17.70;99.90
6843;DHT22;3460;52.028;8.916;2022-10-26T14:06:17;17.60;99.90
6843;DHT22;3460;52.028;8.916;2022-10-26T14:08:46;17.80;99.90
6843;DHT22;3460;52.028;8.916;2022-10-26T14:11:18;17.80;99.90
6843;DHT22;3460;52.028;8.916;2022-10-26T14:13:47;17.80;99.90
6843;DHT22;3460;52.028;8.916;2022-10-26T14:16:16;17.80;99.90
6843;DHT22;3460;52.028;8.916;2022-10-26T14:18:46;17.70;99.90
6843;DHT22;3460;52.028;8.916;2022-10-26T14:21:15;17.90;99.90
6843;DHT22;3460;52.028;8.916;2022-10-26T14:23:47;17.70;99.90
6843;DHT22;3460;52.028;8.916;2022-10-26T14:26:21;17.80;99.90
6843;DHT22;3460;52.028;8.916;2022-10-26T14:28:49;17.80;99.90
6843;DHT22;3460;52.028;8.916;2022-10-26T14:31:22;17.80;99.90
6843;DHT22;3460;52.028;8.916;2022-10-26T14:33:49;17.80;99.90
6843;DHT22;3460;52.028;8.916;2022-10-26T14:36:19;17.70;99.90
6843;DHT22;3460;52.028;8.916;2022-10-26T14:38:48;17.80;99.90
6843;DHT22;3460;52.028;8.916;2022-10-26T14:41:17;17.90;99.90
6843;DHT22;3460;52.028;8.916;2022-10-26T14:43:46;18.00;99.90
6843;DHT22;3460;52.028;8.916;2022-10-26T14:46:14;18.00;99.90
6843;DHT22;3460;52.028;8.916;2022-10-26T14:48:53;18.10;99.90
6843;DHT22;3460;52.028;8.916;2022-10-26T14:51:24;18.10;99.90
6843;DHT22;3460;52.028;8.916;2022-10-26T14:53:52;18.20;99.90
6843;DHT22;3460;52.028;8.916;2022-10-26T14:56:25;18.10;99.90
6843;DHT22;3460;52.028;8.916;2022-10-26T14:58:55;18.00;99.90
6843;DHT22;3460;52.028;8.916;2022-10-26T15:01:30;18.10;99.90
6843;DHT22;3460;52.028;8.916;2022-10-26T15:03:59;18.10;99.90
6843;DHT22;3460;52.028;8.916;2022-10-26T15:06:39;18.00;99.90
6843;DHT22;3460;52.028;8.916;2022-10-26T15:09:19;18.00;99.90
6843;DHT22;3460;52.028;8.916;2022-10-26T15:11:53;17.90;99.90
6843;DHT22;3460;52.028;8.916;2022-10-26T15:14:30;18.00;99.90
6843;DHT22;3460;52.028;8.916;2022-10-26T15:16:58;17.90;99.90
6843;DHT22;3460;52.028;8.916;2022-10-26T15:19:25;17.80;99.90
6843;DHT22;3460;52.028;8.916;2022-10-26T15:21:53;17.90;99.90
6843;DHT22;3460;52.028;8.916;2022-10-26T15:24:32;17.90;99.90
6843;DHT22;3460;52.028;8.916;2022-10-26T15:27:01;17.90;99.90
6843;DHT22;3460;52.028;8.916;2022-10-26T15:29:38;17.80;99.90
6843;DHT22;3460;52.028;8.916;2022-10-26T15:32:20;17.80;99.90
6843;DHT22;3460;52.028;8.916;2022-10-26T15:37:55;17.70;99.90
6843;DHT22;3460;52.028;8.916;2022-10-26T15:40:22;17.60;99.90
6843;DHT22;3460;52.028;8.916;2022-10-26T15:42:51;17.50;99.90
6843;DHT22;3460;52.028;8.916;2022-10-26T15:45:21;17.50;99.90
6843;DHT22;3460;52.028;8.916;2022-10-26T15:47:49;17.40;99.90
6843;DHT22;3460;52.028;8.916;2022-10-26T15:50:18;17.40;99.90
6843;DHT22;3460;52.028;8.916;2022-10-26T15:52:45;17.20;99.90
6843;DHT22;3460;52.028;8.916;2022-10-26T15:55:12;17.20;99.90
6843;DHT22;3460;52.028;8.916;2022-10-26T15:57:39;17.20;99.90
6843;DHT22;3460;52.028;8.916;2022-10-26T16:00:09;17.10;99.90
6843;DHT22;3460;52.028;8.916;2022-10-26T16:02:41;17.30;99.90
6843;DHT22;3460;52.028;8.916;2022-10-26T16:05:10;17.10;99.90
6843;DHT22;3460;52.028;8.916;2022-10-26T16:07:38;17.00;99.90
6843;DHT22;3460;52.028;8.916;2022-10-26T16:10:11;16.80;99.90
6843;DHT22;3460;52.028;8.916;2022-10-26T16:12:39;16.80;99.90
6843;DHT22;3460;52.028;8.916;2022-10-26T16:15:06;16.70;99.90
6843;DHT22;3460;52.028;8.916;2022-10-26T16:17:34;16.60;99.90
6843;DHT22;3460;52.028;8.916;2022-10-26T16:20:02;16.50;99.90
6843;DHT22;3460;52.028;8.916;2022-10-26T16:22:29;16.50;99.90
6843;DHT22;3460;52.028;8.916;2022-10-26T16:24:56;16.30;99.90
6843;DHT22;3460;52.028;8.916;2022-10-26T16:27:22;16.30;99.90
6843;DHT22;3460;52.028;8.916;2022-10-26T16:29:49;16.20;99.90
6843;DHT22;3460;52.028;8.916;2022-10-26T16:32:15;16.20;99.90
6843;DHT22;3460;52.028;8.916;2022-10-26T16:34:42;16.10;99.90
6843;DHT22;3460;52.028;8.916;2022-10-26T16:37:10;16.10;99.90
6843;DHT22;3460;52.028;8.916;2022-10-26T16:39:37;16.00;99.90
6843;DHT22;3460;52.028;8.916;2022-10-26T16:42:04;15.90;99.90
6843;DHT22;3460;52.028;8.916;2022-10-26T16:44:31;15.80;99.90
6843;DHT22;3460;52.028;8.916;2022-10-26T16:46:57;15.70;99.90